Time;durP1;ratioP1;P1;durP2;ratioP2;P2;SDS_P1;SDS_P2;PMS_P1;PMS_P2;Temp;Humidity;BMP_temperature;BMP_pressure;BME280_temperature;BME280_humidity;BME280_pressure;Samples;Min_cycle;Max_cycle;Signal;HPM_P1;HPM_P2
2024/03/11 00:01:44;;;;;;;0.88;0.60;;;16.90;88.10;;;;;;5052201;28;20025;-44
2024/03/11 00:04:13;;;;;;;0.73;0.70;;;16.90;88.10;;;;;;5051807;28;20033;-44
2024/03/11 00:06:40;;;;;;;1.05;0.93;;;16.90;88.00;;;;;;5052100;28;20036;-44
2024/03/11 00:09:15;;;;;;;0.70;0.70;;;16.90;88.10;;;;;;5052374;28;20025;-43
2024/03/11 00:12:05;;;;;;;1.27;0.82;;;16.90;88.00;;;;;;5053256;28;20025;-42
2024/03/11 00:14:30;;;;;;;0.90;0.63;;;16.90;88.10;;;;;;5053357;28;20047;-44
2024/03/11 00:16:56;;;;;;;0.95;0.73;;;16.90;88.00;;;;;;5053001;28;20144;-42
2024/03/11 00:19:22;;;;;;;0.70;0.60;;;16.90;88.00;;;;;;5052327;28;20096;-43
2024/03/11 00:21:55;;;;;;;1.33;0.70;;;16.90;88.00;;;;;;5051769;28;20056;-44
2024/03/11 00:24:21;;;;;;;0.88;0.60;;;16.90;88.00;;;;;;5052225;28;20021;-44
2024/03/11 00:26:49;;;;;;;1.02;0.63;;;16.90;88.00;;;;;;5051680;28;20025;-44
2024/03/11 00:29:16;;;;;;;1.08;0.85;;;16.90;88.00;;;;;;5050707;28;20384;-44
2024/03/11 00:31:42;;;;;;;0.93;0.68;;;16.90;88.00;;;;;;5051203;28;20536;-43
2024/03/11 00:34:08;;;;;;;0.80;0.60;;;16.90;88.00;;;;;;5051299;28;20017;-44
2024/03/11 00:36:34;;;;;;;0.70;0.45;;;16.90;88.00;;;;;;5051181;28;20033;-44
2024/03/11 00:39:03;;;;;;;1.20;0.70;;;16.90;88.00;;;;;;5050896;28;20025;-41
2024/03/11 00:41:32;;;;;;;0.70;0.60;;;16.90;88.00;;;;;;5050734;28;20033;-43
2024/03/11 00:43:59;;;;;;;0.75;0.70;;;16.90;88.10;;;;;;5053041;28;20212;-43
2024/03/11 00:46:25;;;;;;;1.17;0.70;;;16.90;88.40;;;;;;5051673;28;20056;-43
2024/03/11 00:48:51;;;;;;;1.35;0.70;;;16.90;88.10;;;;;;5052560;28;20475;-44
2024/03/11 00:51:16;;;;;;;1.58;0.70;;;16.90;88.20;;;;;;5052029;28;20475;-40
2024/03/11 00:53:43;;;;;;;1.05;0.70;;;16.90;88.10;;;;;;5052174;28;20455;-43
2024/03/11 00:56:09;;;;;;;1.08;0.60;;;16.90;88.10;;;;;;5052848;28;20498;-43
2024/03/11 00:58:36;;;;;;;0.98;0.65;;;16.80;88.80;;;;;;5052276;28;20029;-43
2024/03/11 01:01:05;;;;;;;1.42;0.70;;;16.90;88.20;;;;;;5051388;28;20033;-43
2024/03/11 01:03:31;;;;;;;0.98;0.60;;;16.80;88.10;;;;;;5052109;28;20357;-42
2024/03/11 01:06:00;;;;;;;0.80;0.57;;;16.80;88.10;;;;;;5051939;28;20029;-43
2024/03/11 01:08:31;;;;;;;1.17;0.60;;;16.80;88.10;;;;;;5052691;28;20086;-43
2024/03/11 01:10:56;;;;;;;0.98;0.60;;;16.80;88.10;;;;;;5052922;28;20083;-42
2024/03/11 01:13:22;;;;;;;0.90;0.60;;;16.80;88.10;;;;;;5051497;28;20418;-43
2024/03/11 01:15:49;;;;;;;0.60;0.50;;;16.80;88.10;;;;;;5051674;28;20021;-43
2024/03/11 01:18:15;;;;;;;0.82;0.55;;;16.80;88.20;;;;;;5055118;28;20021;-43
2024/03/11 01:20:41;;;;;;;0.80;0.50;;;16.80;88.20;;;;;;5056502;28;20085;-44
2024/03/11 01:23:08;;;;;;;1.10;0.68;;;16.80;88.20;;;;;;5056148;28;20043;-43
2024/03/11 01:25:34;;;;;;;0.55;0.35;;;16.80;88.20;;;;;;5056290;28;20108;-43
2024/03/11 01:28:00;;;;;;;0.80;0.50;;;16.80;88.20;;;;;;5054014;28;20078;-41
2024/03/11 01:30:26;;;;;;;1.15;0.60;;;16.80;88.20;;;;;;5054838;28;20025;-43
2024/03/11 01:32:52;;;;;;;0.52;0.45;;;16.80;88.20;;;;;;5055632;28;20483;-43
2024/03/11 01:35:18;;;;;;;1.13;0.50;;;16.80;88.20;;;;;;5056029;28;20029;-43
2024/03/11 01:37:44;;;;;;;0.85;0.40;;;16.70;88.10;;;;;;5056420;28;20021;-44
2024/03/11 01:40:12;;;;;;;0.77;0.50;;;16.80;88.20;;;;;;5053976;28;20215;-44
2024/03/11 01:42:44;;;;;;;0.85;0.50;;;16.80;88.20;;;;;;5055458;28;20100;-43
2024/03/11 01:45:12;;;;;;;0.60;0.43;;;16.80;88.20;;;;;;5055603;28;20432;-43
2024/03/11 01:47:39;;;;;;;0.65;0.50;;;16.70;88.10;;;;;;5054716;28;20376;-43
2024/03/11 01:50:09;;;;;;;0.35;0.35;;;16.70;88.10;;;;;;5054580;28;20040;-44
2024/03/11 01:52:37;;;;;;;0.43;0.30;;;16.70;88.20;;;;;;5055141;28;20100;-44
2024/03/11 01:55:05;;;;;;;0.68;0.40;;;16.70;88.20;;;;;;5054161;28;20035;-44
2024/03/11 01:57:34;;;;;;;0.73;0.47;;;16.70;88.30;;;;;;5054402;28;20025;-43
2024/03/11 02:00:01;;;;;;;0.93;0.65;;;16.70;88.30;;;;;;5055154;28;20083;-44
2024/03/11 02:02:29;;;;;;;0.70;0.50;;;16.70;88.30;;;;;;5055781;28;20048;-44
2024/03/11 02:04:55;;;;;;;0.60;0.50;;;16.70;88.30;;;;;;5054973;28;20460;-44
2024/03/11 02:07:22;;;;;;;0.57;0.50;;;16.70;88.20;;;;;;5054677;28;20044;-43
2024/03/11 02:09:48;;;;;;;0.90;0.50;;;16.70;88.20;;;;;;5054394;28;20028;-43
2024/03/11 02:12:17;;;;;;;0.63;0.43;;;16.70;88.10;;;;;;5054556;28;20029;-44
2024/03/11 02:14:43;;;;;;;0.50;0.35;;;16.70;88.10;;;;;;5055063;28;20456;-44
2024/03/11 02:17:09;;;;;;;0.50;0.32;;;16.70;88.90;;;;;;5055174;28;20029;-43
2024/03/11 02:19:37;;;;;;;1.15;0.52;;;16.70;88.00;;;;;;5054908;28;20035;-43
2024/03/11 02:22:03;;;;;;;0.90;0.50;;;16.80;88.10;;;;;;5055029;28;20051;-44
2024/03/11 02:24:28;;;;;;;0.65;0.45;;;16.70;88.00;;;;;;5056444;28;20533;-44
2024/03/11 02:26:54;;;;;;;0.98;0.40;;;16.70;88.00;;;;;;5053246;28;20037;-44
2024/03/11 02:29:20;;;;;;;0.47;0.40;;;16.80;88.00;;;;;;5053210;28;20037;-44
2024/03/11 02:31:50;;;;;;;0.40;0.30;;;16.70;87.90;;;;;;5054832;28;20509;-44
2024/03/11 02:34:16;;;;;;;0.73;0.57;;;16.80;88.00;;;;;;5054815;28;20112;-44
2024/03/11 02:36:50;;;;;;;2.15;0.40;;;16.70;87.80;;;;;;5054073;28;20061;-44
2024/03/11 02:39:16;;;;;;;;;;;16.80;87.90;;;;;;5054993;28;20017;-44
2024/03/11 02:41:43;;;;;;;0.50;0.38;;;16.70;87.80;;;;;;5054561;28;19911;-44
2024/03/11 02:44:10;;;;;;;0.85;0.43;;;16.70;87.90;;;;;;5053904;28;20381;-42
2024/03/11 02:46:35;;;;;;;0.40;0.30;;;16.70;87.80;;;;;;5054198;28;20029;-44
2024/03/11 02:49:02;;;;;;;0.50;0.30;;;16.70;87.80;;;;;;5055110;28;20025;-44
2024/03/11 02:51:30;;;;;;;0.65;0.40;;;16.70;87.80;;;;;;5053662;28;20032;-44
2024/03/11 02:53:56;;;;;;;0.77;0.47;;;16.70;87.80;;;;;;5053989;28;20021;-44
2024/03/11 02:56:22;;;;;;;0.70;0.43;;;16.70;87.80;;;;;;5053580;28;20395;-43
2024/03/11 02:58:49;;;;;;;0.82;0.60;;;16.70;87.80;;;;;;5055001;28;20037;-44
2024/03/11 03:01:16;;;;;;;0.73;0.43;;;16.70;87.80;;;;;;5052163;28;20049;-44
2024/03/11 03:03:42;;;;;;;0.30;0.30;;;16.70;87.80;;;;;;5053812;28;20086;-43
2024/03/11 03:06:08;;;;;;;1.23;0.22;;;16.70;87.80;;;;;;5053494;28;20028;-45
2024/03/11 03:08:33;;;;;;;0.43;0.22;;;16.70;87.80;;;;;;5053235;28;20036;-42
2024/03/11 03:11:02;;;;;;;0.30;0.28;;;16.70;87.70;;;;;;5053142;28;20036;-44
2024/03/11 03:13:29;;;;;;;1.02;0.40;;;16.70;88.50;;;;;;5051279;28;20032;-45
2024/03/11 03:15:56;;;;;;;0.90;0.52;;;16.70;87.70;;;;;;5052701;28;20098;-45
2024/03/11 03:18:22;;;;;;;1.98;0.50;;;16.70;87.70;;;;;;5052366;28;20507;-45
2024/03/11 03:20:48;;;;;;;0.55;0.32;;;16.70;87.70;;;;;;5052146;28;20033;-45
2024/03/11 03:23:13;;;;;;;0.80;0.40;;;16.70;87.80;;;;;;5052443;28;20426;-44
2024/03/11 03:25:39;;;;;;;0.63;0.43;;;16.70;87.80;;;;;;5052347;28;20040;-41
2024/03/11 03:28:05;;;;;;;0.52;0.40;;;16.70;87.80;;;;;;5052953;28;20483;-44
2024/03/11 03:30:33;;;;;;;2.17;0.40;;;16.70;87.80;;;;;;5053056;28;20021;-40
2024/03/11 03:33:00;;;;;;;0.75;0.50;;;16.70;87.80;;;;;;5053974;28;20031;-44
2024/03/11 03:35:25;;;;;;;0.70;0.22;;;16.70;87.80;;;;;;5053253;28;20033;-44
2024/03/11 03:37:52;;;;;;;0.47;0.30;;;16.70;87.80;;;;;;5052974;28;20031;-43
2024/03/11 03:40:18;;;;;;;1.25;0.30;;;16.60;87.80;;;;;;5053069;28;20029;-44
2024/03/11 03:42:47;;;;;;;0.40;0.30;;;16.70;87.80;;;;;;5054302;28;20104;-44
2024/03/11 03:45:14;;;;;;;0.88;0.30;;;16.70;87.80;;;;;;5053362;28;20425;-43
2024/03/11 03:47:40;;;;;;;0.30;0.25;;;16.70;87.80;;;;;;5052977;28;20025;-44
2024/03/11 03:50:10;;;;;;;0.68;0.40;;;16.70;87.80;;;;;;5053700;28;20025;-44
2024/03/11 03:52:44;;;;;;;1.10;0.43;;;16.70;87.70;;;;;;5053302;28;20021;-44
2024/03/11 03:55:14;;;;;;;0.70;0.40;;;16.70;87.70;;;;;;5052057;28;20025;-42
2024/03/11 03:57:42;;;;;;;0.82;0.60;;;16.70;87.70;;;;;;5051967;28;20037;-44
2024/03/11 04:00:17;;;;;;;0.50;0.30;;;16.70;87.70;;;;;;5051995;28;20068;-44
2024/03/11 04:02:44;;;;;;;0.47;0.30;;;16.70;87.70;;;;;;5053897;28;20100;-44
2024/03/11 04:05:11;;;;;;;0.93;0.40;;;16.70;87.60;;;;;;5051743;28;20047;-44
2024/03/11 04:07:42;;;;;;;0.32;0.30;;;16.70;87.60;;;;;;5052220;28;20039;-44
2024/03/11 04:10:12;;;;;;;0.95;0.43;;;16.70;87.60;;;;;;5052501;28;20029;-44
2024/03/11 04:12:41;;;;;;;0.35;0.35;;;16.70;87.50;;;;;;5051634;28;20479;-44
2024/03/11 04:15:09;;;;;;;0.32;0.28;;;16.70;87.60;;;;;;5052805;28;20040;-45
2024/03/11 04:17:35;;;;;;;1.63;0.47;;;16.70;87.50;;;;;;5051848;28;20025;-44
2024/03/11 04:20:10;;;;;;;0.50;0.32;;;16.70;87.50;;;;;;5051732;28;20055;-42
2024/03/11 04:22:37;;;;;;;0.98;0.57;;;16.60;87.40;;;;;;5051748;28;20051;-45
2024/03/11 04:25:05;;;;;;;0.68;0.40;;;16.70;87.40;;;;;;5052154;28;20033;-45
2024/03/11 04:27:30;;;;;;;0.68;0.40;;;16.60;87.30;;;;;;5052568;28;20029;-43
2024/03/11 04:29:56;;;;;;;0.38;0.30;;;16.70;87.40;;;;;;5051571;28;20032;-44
2024/03/11 04:32:24;;;;;;;0.52;0.38;;;16.60;87.30;;;;;;5051744;28;20028;-43
2024/03/11 04:34:49;;;;;;;0.38;0.25;;;16.60;87.30;;;;;;5052255;28;20021;-44
2024/03/11 04:37:15;;;;;;;1.13;0.47;;;16.60;87.30;;;;;;5052027;28;20074;-42
2024/03/11 04:39:42;;;;;;;0.32;0.30;;;16.60;87.30;;;;;;5051883;28;20090;-44
2024/03/11 04:42:08;;;;;;;0.30;0.30;;;16.60;87.30;;;;;;5051651;28;20017;-44
2024/03/11 04:44:33;;;;;;;0.60;0.40;;;16.60;87.30;;;;;;5052069;28;20056;-44
2024/03/11 04:46:59;;;;;;;0.98;0.30;;;16.60;87.30;;;;;;5051614;28;20498;-42
2024/03/11 04:49:27;;;;;;;0.57;0.38;;;16.60;87.30;;;;;;5051171;28;20029;-45
2024/03/11 04:51:52;;;;;;;1.10;0.50;;;16.60;87.30;;;;;;5054597;28;20017;-44
2024/03/11 04:54:19;;;;;;;0.70;0.50;;;16.60;87.30;;;;;;5058820;28;20025;-44
2024/03/11 04:56:45;;;;;;;1.30;0.40;;;16.50;87.20;;;;;;5058022;28;20029;-44
2024/03/11 04:59:12;;;;;;;0.63;0.40;;;16.60;87.30;;;;;;5057456;28;20032;-44
2024/03/11 05:01:38;;;;;;;0.65;0.40;;;16.60;87.20;;;;;;5058509;28;20391;-41
2024/03/11 05:04:04;;;;;;;0.68;0.40;;;16.60;87.20;;;;;;5058299;28;20031;-43
2024/03/11 05:06:30;;;;;;;0.70;0.20;;;16.60;87.10;;;;;;5058345;28;20505;-44
2024/03/11 05:08:56;;;;;;;0.50;0.40;;;16.60;87.10;;;;;;5057116;28;20061;-44
2024/03/11 05:11:22;;;;;;;0.70;0.50;;;16.60;87.00;;;;;;5057629;28;20021;-45
2024/03/11 05:13:50;;;;;;;0.60;0.50;;;16.60;87.00;;;;;;5059594;28;20391;-44
2024/03/11 05:16:22;;;;;;;1.05;0.60;;;16.60;86.90;;;;;;5058766;28;20021;-42
2024/03/11 05:18:48;;;;;;;0.90;0.43;;;16.60;86.90;;;;;;5058953;28;20029;-44
2024/03/11 05:21:13;;;;;;;0.95;0.50;;;16.60;86.80;;;;;;5058193;28;20028;-43
2024/03/11 05:23:40;;;;;;;2.15;0.40;;;16.60;86.70;;;;;;5058235;28;20098;-44
2024/03/11 05:26:06;;;;;;;1.23;0.50;;;16.60;86.70;;;;;;5058517;28;20020;-44
2024/03/11 05:28:31;;;;;;;1.13;0.40;;;16.60;86.70;;;;;;5057890;28;20079;-44
2024/03/11 05:30:58;;;;;;;0.40;0.30;;;16.60;86.60;;;;;;5058067;28;20070;-44
2024/03/11 05:33:23;;;;;;;1.00;0.50;;;16.60;86.60;;;;;;5059441;28;20029;-45
2024/03/11 05:35:50;;;;;;;0.93;0.70;;;16.60;86.50;;;;;;5058659;28;20532;-43
2024/03/11 05:38:16;;;;;;;2.03;1.35;;;16.60;86.50;;;;;;5056814;28;20053;-44
2024/03/11 05:40:43;;;;;;;1.90;1.20;;;16.60;86.50;;;;;;5057306;28;20032;-42
2024/03/11 05:43:09;;;;;;;1.45;1.10;;;16.50;86.40;;;;;;5057831;28;20390;-43
2024/03/11 05:45:35;;;;;;;1.40;0.95;;;16.50;86.40;;;;;;5058465;28;20036;-44
2024/03/11 05:48:04;;;;;;;0.77;0.73;;;16.50;86.40;;;;;;5058434;28;20025;-44
2024/03/11 05:50:30;;;;;;;1.58;0.95;;;16.50;86.40;;;;;;5057591;28;20021;-44
2024/03/11 05:52:55;;;;;;;1.00;0.80;;;16.50;86.30;;;;;;5058079;28;20025;-41
2024/03/11 05:55:22;;;;;;;1.23;0.80;;;16.50;85.50;;;;;;5058700;28;20395;-44
2024/03/11 05:57:50;;;;;;;1.52;0.80;;;16.40;84.80;;;;;;5057936;28;20024;-44
2024/03/11 06:00:16;;;;;;;1.90;0.98;;;16.40;84.70;;;;;;5058263;28;20372;-42
2024/03/11 06:02:43;;;;;;;4.90;1.00;;;16.40;84.80;;;;;;5055682;28;20028;-44
2024/03/11 06:05:09;;;;;;;0.93;0.80;;;16.40;84.80;;;;;;5054616;28;20029;-41
2024/03/11 06:07:35;;;;;;;1.40;1.00;;;16.40;85.00;;;;;;5052110;28;20479;-44
2024/03/11 06:10:00;;;;;;;2.25;1.10;;;16.40;85.00;;;;;;5055090;28;20039;-44
2024/03/11 06:12:28;;;;;;;2.03;0.80;;;16.40;85.10;;;;;;5054526;28;20104;-44
2024/03/11 06:14:54;;;;;;;0.90;0.77;;;16.40;85.20;;;;;;5055385;28;20017;-44
2024/03/11 06:17:20;;;;;;;1.60;0.90;;;16.40;85.30;;;;;;5054692;28;20483;-43
2024/03/11 06:19:46;;;;;;;0.90;0.70;;;16.40;85.40;;;;;;5055154;28;20472;-43
2024/03/11 06:22:15;;;;;;;1.02;0.70;;;16.40;85.40;;;;;;5055521;28;20036;-42
2024/03/11 06:24:41;;;;;;;0.95;0.73;;;16.40;85.50;;;;;;5054839;28;20028;-42
2024/03/11 06:27:07;;;;;;;1.88;0.90;;;16.40;85.60;;;;;;5054300;28;20084;-43
2024/03/11 06:29:33;;;;;;;1.23;0.80;;;16.40;85.60;;;;;;5053254;28;20498;-44
2024/03/11 06:31:59;;;;;;;2.25;0.80;;;16.40;85.60;;;;;;5053870;28;20036;-44
2024/03/11 06:34:27;;;;;;;2.03;0.90;;;16.40;85.60;;;;;;5054313;28;20021;-44
2024/03/11 06:36:53;;;;;;;1.05;0.77;;;16.40;85.60;;;;;;5054338;28;20028;-44
2024/03/11 06:39:18;;;;;;;3.38;1.00;;;16.40;85.70;;;;;;5053417;28;20025;-44
2024/03/11 06:41:44;;;;;;;0.70;0.63;;;16.40;85.80;;;;;;5054750;28;20091;-44
2024/03/11 06:44:10;;;;;;;1.58;0.88;;;16.40;85.80;;;;;;5055677;28;20032;-44
2024/03/11 06:46:36;;;;;;;1.00;0.80;;;16.50;85.90;;;;;;5054839;28;20483;-44
2024/03/11 06:49:03;;;;;;;0.82;0.60;;;16.40;85.90;;;;;;5053102;28;20136;-45
2024/03/11 06:51:29;;;;;;;2.95;1.00;;;16.40;85.90;;;;;;5053838;28;20060;-44
2024/03/11 06:53:55;;;;;;;0.70;0.60;;;16.40;86.00;;;;;;5053637;28;20036;-44
2024/03/11 06:56:20;;;;;;;2.03;0.68;;;16.50;86.00;;;;;;5054080;28;20021;-44
2024/03/11 06:58:46;;;;;;;1.05;0.68;;;16.50;86.10;;;;;;5053906;28;20480;-44
2024/03/11 07:01:12;;;;;;;1.88;0.98;;;16.50;86.10;;;;;;5054588;28;20041;-42
2024/03/11 07:03:38;;;;;;;1.13;0.82;;;16.50;86.20;;;;;;5054352;28;20051;-42
2024/03/11 07:06:04;;;;;;;1.20;0.70;;;16.50;86.20;;;;;;5054230;28;20033;-44
2024/03/11 07:08:32;;;;;;;2.40;0.77;;;16.50;86.20;;;;;;5053359;28;20021;-45
2024/03/11 07:11:00;;;;;;;1.30;0.80;;;16.50;86.20;;;;;;5052873;28;20033;-45
2024/03/11 07:13:29;;;;;;;0.95;0.60;;;16.50;86.30;;;;;;5052637;28;20025;-45
2024/03/11 07:15:55;;;;;;;1.30;0.90;;;16.50;86.30;;;;;;5052706;28;20025;-43
2024/03/11 07:18:21;;;;;;;0.95;0.73;;;16.50;86.30;;;;;;5053144;28;20604;-45
2024/03/11 07:20:48;;;;;;;1.25;0.70;;;16.50;86.30;;;;;;5053702;28;20029;-44
2024/03/11 07:23:14;;;;;;;1.33;0.90;;;16.50;86.40;;;;;;5052937;28;20081;-45
2024/03/11 07:25:40;;;;;;;2.00;1.20;;;16.50;86.40;;;;;;5052664;28;20064;-45
2024/03/11 07:28:06;;;;;;;4.25;1.30;;;16.50;85.90;;;;;;5053000;28;20132;-45
2024/03/11 07:30:33;;;;;;;1.80;1.15;;;16.50;85.80;;;;;;5053159;28;20371;-45
2024/03/11 07:33:14;;;;;;;2.15;1.35;;;16.50;85.70;;;;;;5052397;28;20471;-45
2024/03/11 07:35:43;;;;;;;2.53;1.58;;;16.50;85.90;;;;;;5053571;28;20033;-45
2024/03/11 07:38:10;;;;;;;3.20;1.15;;;16.50;86.00;;;;;;5054047;28;20025;-45
2024/03/11 07:40:38;;;;;;;1.60;1.20;;;16.50;86.20;;;;;;5053643;28;20575;-44
2024/03/11 07:43:07;;;;;;;3.15;1.17;;;16.50;86.30;;;;;;5053306;28;20037;-43
2024/03/11 07:45:34;;;;;;;2.22;1.20;;;16.60;86.50;;;;;;5052775;28;20036;-45
2024/03/11 07:48:01;;;;;;;2.90;1.05;;;16.60;86.60;;;;;;5051501;28;20029;-44
2024/03/11 07:50:28;;;;;;;1.45;0.93;;;16.60;86.70;;;;;;5052136;28;20021;-45
2024/03/11 07:52:54;;;;;;;2.47;1.00;;;16.70;86.80;;;;;;5053706;28;20017;-43
2024/03/11 07:55:22;;;;;;;1.50;1.00;;;16.70;87.60;;;;;;5053874;28;20113;-44
2024/03/11 07:57:48;;;;;;;1.75;1.02;;;16.70;86.80;;;;;;5051867;28;20029;-44
2024/03/11 08:00:18;;;;;;;1.45;1.00;;;16.80;86.80;;;;;;5052900;28;20033;-44
2024/03/11 08:02:47;;;;;;;1.40;1.08;;;16.90;86.80;;;;;;5052078;28;20056;-44
2024/03/11 08:05:18;;;;;;;1.65;1.08;;;16.90;86.70;;;;;;5051438;28;20387;-44
2024/03/11 08:07:47;;;;;;;1.33;0.85;;;17.00;86.70;;;;;;5052757;28;20059;-44
2024/03/11 08:10:14;;;;;;;1.15;0.90;;;17.00;86.60;;;;;;5053175;28;20047;-44
2024/03/11 08:12:42;;;;;;;1.17;0.80;;;17.10;86.50;;;;;;5053116;28;20458;-44
2024/03/11 08:15:11;;;;;;;1.15;0.80;;;17.20;86.40;;;;;;5053577;28;20025;-44
2024/03/11 08:17:37;;;;;;;3.03;1.30;;;17.20;86.30;;;;;;5051080;28;20233;-44
2024/03/11 08:20:08;;;;;;;1.00;0.80;;;17.30;86.30;;;;;;5051732;28;20120;-45
2024/03/11 08:22:37;;;;;;;1.70;1.00;;;17.30;86.10;;;;;;5052490;28;20025;-44
2024/03/11 08:25:07;;;;;;;1.13;0.90;;;17.40;86.10;;;;;;5052472;28;20021;-45
2024/03/11 08:27:32;;;;;;;0.73;0.70;;;17.50;86.00;;;;;;5052801;28;20036;-45
2024/03/11 08:29:59;;;;;;;1.55;1.10;;;17.50;85.90;;;;;;5051543;28;20025;-44
2024/03/11 08:32:25;;;;;;;0.85;0.80;;;17.70;85.80;;;;;;5051942;28;20483;-45
2024/03/11 08:34:54;;;;;;;0.70;0.60;;;17.70;85.60;;;;;;5052432;28;20056;-45
2024/03/11 08:37:21;;;;;;;1.33;0.70;;;17.80;85.50;;;;;;5051156;28;20013;-43
2024/03/11 08:39:50;;;;;;;1.83;0.90;;;17.80;85.40;;;;;;5050794;28;20487;-44
2024/03/11 08:42:16;;;;;;;1.15;0.80;;;17.90;85.20;;;;;;5050998;28;20021;-44
2024/03/11 08:44:43;;;;;;;1.90;0.85;;;17.90;85.10;;;;;;5050437;28;20036;-44
2024/03/11 08:47:11;;;;;;;0.88;0.77;;;18.10;85.00;;;;;;5050737;28;20032;-45
2024/03/11 08:49:38;;;;;;;1.27;0.80;;;18.10;84.80;;;;;;5049256;28;20036;-45
2024/03/11 08:52:06;;;;;;;0.90;0.65;;;18.20;84.70;;;;;;5051148;28;20621;-45
2024/03/11 08:54:32;;;;;;;0.90;0.60;;;18.30;84.60;;;;;;5051056;28;20029;-44
2024/03/11 08:56:59;;;;;;;1.08;0.70;;;18.40;84.40;;;;;;5050788;28;20483;-48
2024/03/11 08:59:26;;;;;;;2.35;0.80;;;18.40;84.20;;;;;;5051463;28;20033;-44
2024/03/11 09:01:57;;;;;;;1.10;0.75;;;18.50;84.10;;;;;;5051027;28;20032;-44
2024/03/11 09:04:25;;;;;;;0.60;0.57;;;18.60;83.90;;;;;;5050961;28;20028;-45
2024/03/11 09:06:51;;;;;;;1.33;0.80;;;18.70;83.80;;;;;;5050690;28;20029;-44
2024/03/11 09:09:24;;;;;;;1.00;0.70;;;18.70;83.60;;;;;;5050831;28;20028;-45
2024/03/11 09:11:54;;;;;;;0.63;0.52;;;18.80;83.50;;;;;;5051527;28;20021;-45
2024/03/11 09:14:20;;;;;;;1.10;0.63;;;18.90;83.40;;;;;;5051128;28;20056;-45
2024/03/11 09:16:46;;;;;;;1.38;0.77;;;19.00;83.20;;;;;;5050687;28;20037;-45
2024/03/11 09:19:14;;;;;;;0.95;0.65;;;19.00;83.00;;;;;;5051404;28;20128;-43
2024/03/11 09:21:41;;;;;;;1.20;0.60;;;19.10;82.90;;;;;;5050858;28;20142;-44
2024/03/11 09:24:07;;;;;;;0.60;0.52;;;19.20;82.60;;;;;;5050609;28;20047;-44
2024/03/11 09:26:33;;;;;;;0.50;0.50;;;19.20;82.40;;;;;;5050376;28;20029;-45
2024/03/11 09:28:59;;;;;;;0.45;0.40;;;19.30;82.40;;;;;;5050198;28;20051;-45
2024/03/11 09:31:26;;;;;;;0.73;0.63;;;19.40;82.20;;;;;;5050395;28;20088;-43
2024/03/11 09:33:51;;;;;;;2.15;0.77;;;19.40;82.00;;;;;;5057135;28;20371;-44
2024/03/11 09:36:17;;;;;;;2.28;0.60;;;19.50;81.90;;;;;;5069075;28;20027;-45
2024/03/11 09:38:43;;;;;;;2.67;0.68;;;19.60;82.00;;;;;;5073246;28;20429;-45
2024/03/11 09:41:14;;;;;;;1.13;0.50;;;19.60;82.00;;;;;;5074183;28;20109;-44
2024/03/11 09:43:48;;;;;;;0.80;0.55;;;19.60;81.90;;;;;;5074727;28;20458;-45
2024/03/11 09:46:21;;;;;;;2.10;0.68;;;19.70;81.80;;;;;;5072755;28;20041;-44
2024/03/11 09:48:51;;;;;;;0.90;0.43;;;19.80;81.70;;;;;;5074315;28;20346;-44
2024/03/11 09:51:21;;;;;;;1.98;0.50;;;19.80;81.50;;;;;;5073806;28;20048;-45
2024/03/11 09:53:52;;;;;;;0.82;0.47;;;19.90;81.50;;;;;;5074198;28;20046;-44
2024/03/11 09:56:20;;;;;;;0.82;0.40;;;20.00;81.30;;;;;;5073770;28;20033;-42
2024/03/11 09:58:55;;;;;;;0.80;0.40;;;20.00;81.20;;;;;;5073649;28;20107;-44
2024/03/11 10:01:24;;;;;;;1.05;0.60;;;20.10;81.10;;;;;;5073776;28;20032;-45
2024/03/11 10:03:50;;;;;;;0.65;0.30;;;20.20;81.10;;;;;;5073780;28;20035;-45
2024/03/11 10:06:16;;;;;;;1.25;0.60;;;20.20;80.90;;;;;;5073535;28;20025;-45
2024/03/11 10:08:45;;;;;;;1.23;0.57;;;20.30;80.90;;;;;;5073372;28;20398;-44
2024/03/11 10:11:14;;;;;;;1.48;0.50;;;20.40;80.90;;;;;;5073426;28;20021;-45
2024/03/11 10:13:40;;;;;;;0.50;0.30;;;20.40;81.10;;;;;;5073953;28;20017;-45
2024/03/11 10:16:24;;;;;;;1.00;0.55;;;20.40;81.40;;;;;;5073747;28;20032;-45
2024/03/11 10:19:02;;;;;;;0.90;0.40;;;20.60;81.20;;;;;;5073454;28;20063;-44
2024/03/11 10:21:33;;;;;;;0.57;0.32;;;20.80;80.30;;;;;;5073277;28;20032;-43
2024/03/11 10:24:00;;;;;;;0.40;0.30;;;21.10;80.10;;;;;;5073461;28;20039;-45
2024/03/11 10:26:30;;;;;;;0.77;0.40;;;21.20;80.00;;;;;;5073252;28;20490;-45
2024/03/11 10:28:56;;;;;;;0.57;0.40;;;21.30;79.50;;;;;;5073135;28;20036;-44
2024/03/11 10:31:24;;;;;;;0.77;0.45;;;21.20;79.30;;;;;;5073147;28;20031;-45
2024/03/11 10:33:56;;;;;;;0.28;0.20;;;21.30;79.00;;;;;;5073381;28;20027;-44
2024/03/11 10:36:24;;;;;;;1.00;0.40;;;21.40;78.60;;;;;;5073174;28;20441;-44
2024/03/11 10:38:53;;;;;;;0.82;0.40;;;21.40;78.40;;;;;;5073098;28;20021;-44
2024/03/11 10:41:21;;;;;;;0.63;0.30;;;21.40;78.20;;;;;;5072363;28;20024;-44
2024/03/11 10:43:52;;;;;;;0.70;0.40;;;21.50;78.20;;;;;;5073059;28;20020;-44
2024/03/11 10:46:22;;;;;;;1.10;0.57;;;21.50;78.40;;;;;;5072881;28;20029;-44
2024/03/11 10:48:50;;;;;;;0.30;0.30;;;21.40;78.80;;;;;;5073101;28;20012;-45
2024/03/11 10:51:21;;;;;;;1.30;0.50;;;21.60;78.20;;;;;;5072771;28;20031;-45
2024/03/11 10:53:58;;;;;;;0.93;0.47;;;21.80;77.80;;;;;;5073116;28;20021;-44
2024/03/11 10:56:24;;;;;;;0.77;0.40;;;21.90;77.70;;;;;;5072788;28;20097;-44
2024/03/11 10:58:55;;;;;;;0.85;0.30;;;22.00;77.30;;;;;;5072869;28;20028;-44
2024/03/11 11:01:33;;;;;;;1.13;0.47;;;22.00;76.90;;;;;;5072723;28;20029;-45
2024/03/11 11:04:05;;;;;;;0.50;0.35;;;22.10;76.70;;;;;;5073670;28;20471;-44
2024/03/11 11:06:33;;;;;;;0.43;0.30;;;22.10;76.50;;;;;;5073004;28;20020;-44
2024/03/11 11:09:10;;;;;;;2.60;0.50;;;22.10;76.40;;;;;;5074376;28;20113;-45
2024/03/11 11:11:38;;;;;;;0.80;0.40;;;22.10;76.30;;;;;;5073705;28;20394;-44
2024/03/11 11:14:05;;;;;;;0.60;0.22;;;22.10;76.20;;;;;;5072381;28;20020;-43
2024/03/11 11:16:31;;;;;;;0.85;0.35;;;22.10;76.10;;;;;;5072296;28;20074;-43
2024/03/11 11:18:59;;;;;;;0.40;0.30;;;22.10;76.00;;;;;;5073937;28;20562;-45
2024/03/11 11:21:29;;;;;;;0.30;0.30;;;22.10;76.00;;;;;;5073032;28;20123;-45
2024/03/11 11:23:56;;;;;;;0.43;0.32;;;22.00;75.90;;;;;;5072332;28;20017;-44
2024/03/11 11:26:48;;;;;;;0.45;0.30;;;22.10;75.90;;;;;;5072089;28;20035;-45
2024/03/11 11:29:21;;;;;;;0.90;0.40;;;22.00;75.90;;;;;;5072352;28;20047;-45
2024/03/11 11:32:07;;;;;;;0.80;0.30;;;22.00;76.00;;;;;;5072050;28;20103;-45
2024/03/11 11:34:44;;;;;;;0.40;0.25;;;21.90;76.10;;;;;;5072076;28;20013;-45
2024/03/11 11:37:21;;;;;;;0.32;0.20;;;21.80;76.10;;;;;;5071816;28;20530;-45
2024/03/11 11:39:46;;;;;;;0.50;0.20;;;21.80;76.20;;;;;;5071796;28;20028;-45
2024/03/11 11:42:35;;;;;;;0.35;0.28;;;21.80;76.20;;;;;;5071762;28;20028;-45
2024/03/11 11:45:01;;;;;;;0.80;0.35;;;21.70;76.20;;;;;;5072366;28;20032;-44
2024/03/11 11:47:27;;;;;;;0.25;0.20;;;21.70;76.30;;;;;;5072089;28;20017;-44
2024/03/11 11:49:54;;;;;;;0.20;0.20;;;21.70;76.40;;;;;;5071641;28;20086;-45
2024/03/11 11:52:22;;;;;;;0.30;0.20;;;21.60;76.40;;;;;;5071771;28;20020;-45
2024/03/11 11:54:50;;;;;;;0.38;0.20;;;21.60;76.50;;;;;;5071625;28;20157;-44
2024/03/11 11:57:19;;;;;;;0.50;0.30;;;21.50;76.50;;;;;;5071550;28;20052;-42
2024/03/11 11:59:47;;;;;;;0.43;0.30;;;21.50;76.60;;;;;;5071583;28;20021;-45
2024/03/11 12:02:28;;;;;;;0.30;0.22;;;21.40;76.70;;;;;;5070644;28;20017;-45
2024/03/11 12:04:54;;;;;;;0.63;0.40;;;21.40;76.70;;;;;;5071523;28;20025;-44
2024/03/11 12:07:24;;;;;;;1.13;0.28;;;21.40;76.90;;;;;;5071109;28;20032;-45
2024/03/11 12:09:56;;;;;;;0.40;0.20;;;21.30;77.10;;;;;;5071209;28;20031;-45
2024/03/11 12:12:30;;;;;;;0.50;0.28;;;21.30;77.20;;;;;;5071588;28;20089;-45
2024/03/11 12:14:56;;;;;;;0.88;0.30;;;21.30;77.30;;;;;;5071381;28;20028;-45
2024/03/11 12:17:25;;;;;;;0.50;0.20;;;21.20;77.30;;;;;;5071475;28;20039;-45
2024/03/11 12:20:12;;;;;;;0.63;0.30;;;21.30;77.30;;;;;;5070962;28;20268;-45
2024/03/11 12:22:38;;;;;;;0.45;0.22;;;21.30;77.30;;;;;;5071366;28;20029;-46
2024/03/11 12:25:04;;;;;;;0.25;0.20;;;21.30;77.40;;;;;;5071277;28;20040;-45
2024/03/11 12:27:30;;;;;;;0.75;0.40;;;21.30;77.40;;;;;;5071233;28;20028;-45
2024/03/11 12:30:03;;;;;;;0.43;0.17;;;21.30;77.50;;;;;;5070889;28;20032;-45
2024/03/11 12:32:30;;;;;;;0.38;0.22;;;21.30;77.50;;;;;;5071512;28;20029;-42
2024/03/11 12:34:59;;;;;;;0.20;0.20;;;21.30;77.80;;;;;;5071417;28;20390;-44
2024/03/11 12:37:26;;;;;;;0.50;0.30;;;21.40;77.70;;;;;;5070699;28;20032;-45
2024/03/11 12:39:52;;;;;;;0.40;0.30;;;21.70;78.10;;;;;;5070900;28;20029;-45
2024/03/11 12:42:28;;;;;;;0.38;0.20;;;21.70;77.30;;;;;;5071079;28;20115;-45
2024/03/11 12:44:59;;;;;;;0.10;0.10;;;21.60;77.50;;;;;;5071366;28;20056;-45
2024/03/11 12:47:25;;;;;;;0.30;0.22;;;21.50;77.50;;;;;;5070863;28;20021;-44
2024/03/11 12:49:50;;;;;;;0.68;0.20;;;21.50;77.40;;;;;;5071061;28;20021;-45
2024/03/11 12:52:17;;;;;;;0.93;0.30;;;21.60;77.30;;;;;;5071494;28;20016;-44